Time;durP1;ratioP1;P1;durP2;ratioP2;P2;SDS_P1;SDS_P2;PMS_P1;PMS_P2;Temp;Humidity;BMP_temperature;BMP_pressure;BME280_temperature;BME280_humidity;BME280_pressure;Samples;Min_cycle;Max_cycle;Signal;HPM_P1;HPM_P2
2023/08/08 00:01:20;;;;;;;5.00;1.50;;;;;;;;;;110428;1274;22101;-79
2023/08/08 00:03:48;;;;;;;5.80;1.70;;;;;;;;;;110591;1256;22866;-77
2023/08/08 00:06:18;;;;;;;5.50;1.60;;;;;;;;;;110623;1257;22102;-77
2023/08/08 00:08:47;;;;;;;5.70;1.40;;;;;;;;;;110550;1274;22079;-78
2023/08/08 00:11:17;;;;;;;4.80;1.50;;;;;;;;;;110367;1274;22115;-77
2023/08/08 00:13:46;;;;;;;6.50;1.90;;;;;;;;;;110591;1274;22110;-78
2023/08/08 00:16:14;;;;;;;6.00;1.80;;;;;;;;;;110533;1257;22281;-78
2023/08/08 00:18:43;;;;;;;7.00;1.80;;;;;;;;;;110553;1274;22751;-77
2023/08/08 00:21:12;;;;;;;6.10;1.80;;;;;;;;;;110673;1274;21995;-78
2023/08/08 00:23:41;;;;;;;6.90;1.50;;;;;;;;;;110578;1274;22121;-77
2023/08/08 00:26:11;;;;;;;4.00;1.30;;;;;;;;;;110668;1253;22962;-77
2023/08/08 00:28:41;;;;;;;7.00;1.60;;;;;;;;;;110589;1273;22130;-78
2023/08/08 00:31:10;;;;;;;5.00;1.70;;;;;;;;;;110593;1275;22119;-77
2023/08/08 00:33:40;;;;;;;5.50;1.70;;;;;;;;;;110580;1274;22083;-77
2023/08/08 00:36:09;;;;;;;6.80;1.70;;;;;;;;;;110395;1273;22382;-77
2023/08/08 00:38:37;;;;;;;5.20;1.40;;;;;;;;;;110628;1260;22150;-77
2023/08/08 00:48:19;;;;;;;4.80;1.60;;;;;;;;;;104183;1293;544992;-80
2023/08/08 00:50:48;;;;;;;7.10;1.80;;;;;;;;;;106361;1285;25189;-79
2023/08/08 00:53:15;;;;;;;6.60;1.50;;;;;;;;;;106546;1281;25350;-83
2023/08/08 00:55:50;;;;;;;6.20;1.80;;;;;;;;;;106575;1281;24324;-80
2023/08/08 00:58:27;;;;;;;6.20;1.60;;;;;;;;;;106519;1266;25285;-79
2023/08/08 01:00:57;;;;;;;5.20;1.20;;;;;;;;;;104147;1278;3286919;-79
2023/08/08 01:03:24;;;;;;;4.30;1.30;;;;;;;;;;106959;1277;23866;-81
2023/08/08 01:05:58;;;;;;;7.10;1.90;;;;;;;;;;106890;1277;22518;-85
2023/08/08 01:08:30;;;;;;;6.70;1.90;;;;;;;;;;106913;1260;25233;-79
2023/08/08 01:11:03;;;;;;;9.30;1.80;;;;;;;;;;106936;1276;22524;-78
2023/08/08 01:13:38;;;;;;;5.80;1.80;;;;;;;;;;106851;1276;22525;-82
2023/08/08 01:16:07;;;;;;;6.20;1.90;;;;;;;;;;106939;1276;23389;-77
2023/08/08 01:18:35;;;;;;;5.40;1.70;;;;;;;;;;106882;1260;25315;-79
2023/08/08 01:21:08;;;;;;;9.10;1.70;;;;;;;;;;106918;1276;25268;-79
2023/08/08 01:23:41;;;;;;;6.50;1.70;;;;;;;;;;107111;1276;25343;-79
2023/08/08 01:26:08;;;;;;;7.40;1.90;;;;;;;;;;107034;1276;24215;-83
2023/08/08 01:28:46;;;;;;;6.90;1.80;;;;;;;;;;106866;1277;22529;-79
2023/08/08 01:31:33;;;;;;;6.10;1.60;;;;;;;;;;106944;1277;25333;-78
2023/08/08 01:34:00;;;;;;;8.60;2.30;;;;;;;;;;106906;1277;23904;-81
2023/08/08 01:36:32;;;;;;;6.30;1.40;;;;;;;;;;106878;1277;23129;-83
2023/08/08 01:39:04;;;;;;;6.20;1.60;;;;;;;;;;106879;1258;22575;-79
2023/08/08 01:41:36;;;;;;;5.80;1.50;;;;;;;;;;106928;1275;22521;-80
2023/08/08 01:44:04;;;;;;;5.20;1.60;;;;;;;;;;107117;1275;22525;-79
2023/08/08 01:46:31;;;;;;;5.10;1.50;;;;;;;;;;106994;1275;24284;-81
2023/08/08 01:48:59;;;;;;;6.20;2.00;;;;;;;;;;106911;1260;22518;-83
2023/08/08 01:51:29;;;;;;;8.30;1.90;;;;;;;;;;106924;1276;25268;-82
2023/08/08 01:53:58;;;;;;;6.50;1.70;;;;;;;;;;106978;1276;22557;-80
2023/08/08 01:56:25;;;;;;;6.00;1.50;;;;;;;;;;107125;1273;24198;-78
2023/08/08 01:59:01;;;;;;;7.30;1.70;;;;;;;;;;106977;1267;22486;-79
2023/08/08 02:01:31;;;;;;;5.30;1.90;;;;;;;;;;106899;1275;23892;-83
2023/08/08 02:03:57;;;;;;;5.70;1.90;;;;;;;;;;107105;1275;22550;-82
2023/08/08 02:06:24;;;;;;;5.30;1.70;;;;;;;;;;106948;1275;25438;-81
2023/08/08 02:08:51;;;;;;;6.00;1.80;;;;;;;;;;106920;1254;22553;-84
2023/08/08 02:11:22;;;;;;;6.40;1.70;;;;;;;;;;106944;1276;22524;-83
2023/08/08 02:13:49;;;;;;;5.10;1.30;;;;;;;;;;106926;1276;22531;-81
2023/08/08 02:16:19;;;;;;;5.10;1.60;;;;;;;;;;106902;1276;24390;-82
2023/08/08 02:18:48;;;;;;;5.20;1.60;;;;;;;;;;106891;1275;22536;-77
2023/08/08 02:21:15;;;;;;;7.50;1.80;;;;;;;;;;106963;1267;22521;-81
2023/08/08 02:23:42;;;;;;;5.10;1.90;;;;;;;;;;106920;1275;24226;-78
2023/08/08 02:26:09;;;;;;;5.50;1.80;;;;;;;;;;107011;1275;22512;-81
2023/08/08 02:28:36;;;;;;;6.30;1.80;;;;;;;;;;106968;1275;25373;-81
2023/08/08 02:31:06;;;;;;;6.30;1.50;;;;;;;;;;106949;1276;24259;-82
2023/08/08 02:33:44;;;;;;;7.40;1.50;;;;;;;;;;106938;1276;22552;-78
2023/08/08 02:36:11;;;;;;;9.40;1.70;;;;;;;;;;106935;1276;25442;-82
2023/08/08 02:38:47;;;;;;;7.20;1.70;;;;;;;;;;106954;1276;22996;-79
2023/08/08 02:41:14;;;;;;;5.50;1.50;;;;;;;;;;106945;1267;22517;-81
2023/08/08 02:43:41;;;;;;;6.50;1.70;;;;;;;;;;106906;1275;25344;-82
2023/08/08 02:46:08;;;;;;;6.00;1.60;;;;;;;;;;106948;1275;24189;-83
2023/08/08 02:48:35;;;;;;;5.00;1.40;;;;;;;;;;106911;1268;22602;-80
2023/08/08 02:51:22;;;;;;;7.40;1.40;;;;;;;;;;107100;1256;22524;-79
2023/08/08 02:53:49;;;;;;;5.40;1.80;;;;;;;;;;107081;1276;22562;-82
2023/08/08 02:56:25;;;;;;;6.30;1.40;;;;;;;;;;106941;1276;25662;-82
2023/08/08 02:58:52;;;;;;;6.60;1.70;;;;;;;;;;106938;1276;25233;-79
2023/08/08 03:01:21;;;;;;;6.10;1.80;;;;;;;;;;106868;1270;25362;-84
2023/08/08 03:03:48;;;;;;;6.10;1.50;;;;;;;;;;106897;1275;23889;-78
2023/08/08 03:06:22;;;;;;;7.40;1.60;;;;;;;;;;106932;1275;24085;-81
2023/08/08 03:08:50;;;;;;;5.60;1.90;;;;;;;;;;106876;1275;24244;-79
2023/08/08 03:11:17;;;;;;;6.10;1.40;;;;;;;;;;106914;1268;22524;-78
2023/08/08 03:13:52;;;;;;;6.10;1.90;;;;;;;;;;106948;1276;24198;-84
2023/08/08 03:16:19;;;;;;;5.00;1.50;;;;;;;;;;106953;1276;23867;-80
2023/08/08 03:18:52;;;;;;;6.80;2.10;;;;;;;;;;106972;1276;24190;-82
2023/08/08 03:21:19;;;;;;;6.90;1.60;;;;;;;;;;106922;1275;24223;-84
2023/08/08 03:23:46;;;;;;;6.70;1.70;;;;;;;;;;106834;1275;22533;-82
2023/08/08 03:26:26;;;;;;;7.00;1.50;;;;;;;;;;106947;1275;22520;-79
2023/08/08 03:29:02;;;;;;;7.30;1.40;;;;;;;;;;106997;1275;24263;-77
2023/08/08 03:31:39;;;;;;;5.30;1.40;;;;;;;;;;106931;1261;22517;-79
2023/08/08 03:34:19;;;;;;;;;;;;;;;;;;;;;
2023/08/08 03:37:09;;;;;;;6.20;1.60;;;;;;;;;;107215;1273;24193;-77
2023/08/08 03:39:36;;;;;;;6.40;1.60;;;;;;;;;;107197;1273;24221;-81
2023/08/08 03:42:06;;;;;;;6.80;1.50;;;;;;;;;;107216;1257;22517;-78
2023/08/08 03:44:33;;;;;;;5.60;1.50;;;;;;;;;;106982;1264;24266;-77
2023/08/08 03:47:03;;;;;;;4.90;1.60;;;;;;;;;;107293;1272;22523;-83
2023/08/08 03:49:30;;;;;;;6.70;1.60;;;;;;;;;;107236;1272;25275;-77
2023/08/08 03:52:07;;;;;;;5.50;1.70;;;;;;;;;;107207;1265;25264;-80
2023/08/08 03:54:44;;;;;;;5.20;1.60;;;;;;;;;;107114;1272;24221;-82
2023/08/08 03:57:14;;;;;;;7.40;2.10;;;;;;;;;;107361;1272;22524;-84
2023/08/08 03:59:41;;;;;;;4.80;1.50;;;;;;;;;;107137;1272;22517;-84
2023/08/08 04:02:13;;;;;;;4.60;1.20;;;;;;;;;;107233;1254;22518;-82
2023/08/08 04:04:43;;;;;;;5.50;1.50;;;;;;;;;;106980;1272;24354;-85
2023/08/08 04:07:13;;;;;;;7.70;1.70;;;;;;;;;;107169;1260;25331;-78
2023/08/08 04:09:47;;;;;;;6.70;1.70;;;;;;;;;;107257;1272;22774;-84
2023/08/08 04:12:14;;;;;;;5.80;1.70;;;;;;;;;;107217;1265;22523;-85
2023/08/08 04:14:50;;;;;;;8.00;2.00;;;;;;;;;;107230;1272;25271;-81
2023/08/08 04:17:17;;;;;;;5.10;1.70;;;;;;;;;;107128;1272;24917;-81
2023/08/08 04:19:46;;;;;;;5.70;2.00;;;;;;;;;;107182;1272;24236;-81
2023/08/08 04:22:13;;;;;;;8.50;2.30;;;;;;;;;;107228;1257;22577;-78
2023/08/08 04:24:43;;;;;;;8.70;2.30;;;;;;;;;;107173;1272;24256;-78
2023/08/08 04:27:10;;;;;;;5.70;1.70;;;;;;;;;;106971;1272;22520;-82
2023/08/08 04:29:59;;;;;;;7.30;2.10;;;;;;;;;;107200;1272;22485;-81
2023/08/08 04:32:46;;;;;;;6.00;1.60;;;;;;;;;;107213;1272;25465;-82
2023/08/08 04:35:19;;;;;;;7.10;1.90;;;;;;;;;;107240;1272;22511;-77
2023/08/08 04:38:06;;;;;;;6.90;1.50;;;;;;;;;;107148;1272;24236;-80
2023/08/08 04:41:32;;;;;;;4.10;1.20;;;;;;;;;;107331;1269;22507;-78
2023/08/08 04:43:33;;;;;;;6.20;1.80;;;;;;;;;;107130;1255;22530;-77
2023/08/08 04:46:00;;;;;;;6.00;1.60;;;;;;;;;;107278;1272;25377;-83
2023/08/08 04:48:27;;;;;;;6.60;1.50;;;;;;;;;;107173;1273;25223;-78
2023/08/08 04:50:54;;;;;;;5.30;1.80;;;;;;;;;;107128;1273;22520;-78
2023/08/08 04:53:26;;;;;;;8.60;1.90;;;;;;;;;;107272;1260;22522;-83
2023/08/08 04:55:56;;;;;;;7.50;1.70;;;;;;;;;;107258;1273;22629;-80
2023/08/08 04:58:26;;;;;;;7.90;1.70;;;;;;;;;;107236;1273;22521;-78
2023/08/08 05:01:05;;;;;;;10.40;1.80;;;;;;;;;;107376;1273;23079;-77
2023/08/08 05:03:45;;;;;;;7.50;1.60;;;;;;;;;;107171;1257;22536;-80
2023/08/08 05:07:03;;;;;;;;;;;;;;;;;;;;;
2023/08/08 05:10:02;;;;;;;9.90;3.60;;;;;;;;;;107219;1273;24007;-87
2023/08/08 05:12:49;;;;;;;6.90;2.40;;;;;;;;;;107226;1251;25265;-87
2023/08/08 05:16:04;;;;;;;6.70;2.00;;;;;;;;;;107216;1273;22518;-84
2023/08/08 05:18:36;;;;;;;6.00;1.80;;;;;;;;;;107279;1273;25327;-83
2023/08/08 05:21:03;;;;;;;8.50;2.10;;;;;;;;;;107256;1273;22527;-81
2023/08/08 05:23:29;;;;;;;7.30;2.30;;;;;;;;;;107257;1257;22542;-88
2023/08/08 05:26:05;;;;;;;6.50;1.90;;;;;;;;;;107213;1273;25344;-80
2023/08/08 05:28:32;;;;;;;6.20;1.60;;;;;;;;;;107029;1273;22527;-81
2023/08/08 05:30:59;;;;;;;16.10;2.40;;;;;;;;;;106995;1273;22572;-83
2023/08/08 05:33:26;;;;;;;7.90;2.10;;;;;;;;;;107188;1256;22521;-82
2023/08/08 05:35:53;;;;;;;6.20;1.40;;;;;;;;;;107250;1273;24202;-80
2023/08/08 05:38:20;;;;;;;7.30;2.00;;;;;;;;;;107201;1273;25220;-82
2023/08/08 05:40:46;;;;;;;7.00;1.80;;;;;;;;;;107162;1273;25312;-82
2023/08/08 05:43:18;;;;;;;6.60;1.90;;;;;;;;;;107177;1273;25234;-78
2023/08/08 05:45:45;;;;;;;7.40;2.30;;;;;;;;;;107219;1273;22523;-78
2023/08/08 05:48:23;;;;;;;6.50;2.10;;;;;;;;;;107214;1273;24713;-78
2023/08/08 05:50:49;;;;;;;8.20;2.10;;;;;;;;;;107173;1251;22517;-79
2023/08/08 05:53:16;;;;;;;5.60;1.50;;;;;;;;;;107100;1257;22760;-83
2023/08/08 05:55:43;;;;;;;6.80;1.70;;;;;;;;;;107209;1273;25331;-77
2023/08/08 05:58:13;;;;;;;7.20;1.50;;;;;;;;;;107201;1273;22529;-86
2023/08/08 06:00:43;;;;;;;8.50;1.90;;;;;;;;;;107276;1257;22621;-86
2023/08/08 06:03:09;;;;;;;7.50;1.50;;;;;;;;;;107217;1273;22513;-77
2023/08/08 06:05:57;;;;;;;6.00;1.60;;;;;;;;;;107203;1255;22520;-83
2023/08/08 06:08:31;;;;;;;6.70;1.60;;;;;;;;;;107218;1273;22517;-84
2023/08/08 06:11:21;;;;;;;6.20;1.50;;;;;;;;;;107184;1270;22679;-83
2023/08/08 06:13:50;;;;;;;6.20;1.70;;;;;;;;;;107245;1253;22489;-84
2023/08/08 06:16:21;;;;;;;7.20;1.70;;;;;;;;;;107173;1274;22533;-85
2023/08/08 06:18:48;;;;;;;6.40;1.60;;;;;;;;;;107179;1270;24208;-83
2023/08/08 06:21:15;;;;;;;7.70;1.90;;;;;;;;;;107144;1260;22533;-79
2023/08/08 06:23:46;;;;;;;5.50;1.60;;;;;;;;;;107210;1251;25310;-81
2023/08/08 06:26:13;;;;;;;7.60;1.70;;;;;;;;;;106901;1274;22529;-85
2023/08/08 06:28:40;;;;;;;6.70;1.60;;;;;;;;;;106946;1274;25346;-83
2023/08/08 06:31:07;;;;;;;5.20;1.50;;;;;;;;;;107152;1274;25431;-83
2023/08/08 06:33:39;;;;;;;4.10;1.30;;;;;;;;;;107113;1274;24350;-80
2023/08/08 06:36:07;;;;;;;6.20;1.60;;;;;;;;;;107187;1266;25271;-79
2023/08/08 06:38:33;;;;;;;5.60;1.30;;;;;;;;;;107149;1274;25538;-80
2023/08/08 06:41:22;;;;;;;6.80;1.30;;;;;;;;;;107165;1274;25277;-83
2023/08/08 06:43:47;;;;;;;5.50;1.40;;;;;;;;;;106988;1274;22542;-83
2023/08/08 06:46:17;;;;;;;4.20;1.30;;;;;;;;;;106967;1257;22524;-81
2023/08/08 06:48:44;;;;;;;5.90;1.40;;;;;;;;;;107119;1273;22646;-83
2023/08/08 06:51:11;;;;;;;5.10;1.20;;;;;;;;;;106971;1273;22780;-87
2023/08/08 06:53:38;;;;;;;6.50;1.90;;;;;;;;;;107200;1273;24346;-79
2023/08/08 06:56:05;;;;;;;4.90;1.30;;;;;;;;;;107215;1253;22528;-80
2023/08/08 06:58:32;;;;;;;4.30;1.30;;;;;;;;;;107150;1274;22562;-85
2023/08/08 07:01:08;;;;;;;5.50;1.40;;;;;;;;;;106920;1274;26490;-83
2023/08/08 07:03:36;;;;;;;5.20;1.60;;;;;;;;;;107136;1274;22476;-80
2023/08/08 07:06:03;;;;;;;3.10;1.20;;;;;;;;;;107215;1254;22531;-86
2023/08/08 07:08:29;;;;;;;3.30;1.20;;;;;;;;;;107179;1273;22547;-86
2023/08/08 07:10:57;;;;;;;4.50;1.10;;;;;;;;;;107232;1273;25363;-81
2023/08/08 07:13:26;;;;;;;4.60;1.30;;;;;;;;;;107186;1273;22530;-82
2023/08/08 07:16:07;;;;;;;5.30;1.50;;;;;;;;;;107057;1257;25535;-80
2023/08/08 07:18:34;;;;;;;4.80;1.40;;;;;;;;;;107161;1274;23858;-81
2023/08/08 07:21:04;;;;;;;5.10;1.20;;;;;;;;;;107251;1274;22521;-87
2023/08/08 07:24:02;;;;;;;5.50;1.10;;;;;;;;;;107187;1274;24170;-87
2023/08/08 07:26:32;;;;;;;4.80;1.10;;;;;;;;;;107231;1255;25380;-86
2023/08/08 07:28:58;;;;;;;4.60;1.10;;;;;;;;;;107156;1273;22473;-83
2023/08/08 07:31:28;;;;;;;4.90;1.00;;;;;;;;;;107165;1273;22535;-80
2023/08/08 07:33:55;;;;;;;6.50;1.40;;;;;;;;;;107180;1273;25332;-80
2023/08/08 07:36:36;;;;;;;5.50;1.30;;;;;;;;;;107280;1254;24332;-82
2023/08/08 07:39:03;;;;;;;3.60;1.10;;;;;;;;;;107560;1273;24215;-79
2023/08/08 07:41:30;;;;;;;3.50;1.30;;;;;;;;;;107304;1273;22522;-82
2023/08/08 07:43:57;;;;;;;6.30;1.60;;;;;;;;;;107216;1273;24240;-82
2023/08/08 07:46:27;;;;;;;8.80;1.30;;;;;;;;;;107221;1273;25335;-80
2023/08/08 07:48:59;;;;;;;5.30;1.00;;;;;;;;;;107216;1273;22527;-83
2023/08/08 07:51:39;;;;;;;3.50;1.10;;;;;;;;;;107125;1273;22518;-83
2023/08/08 07:54:08;;;;;;;5.70;1.30;;;;;;;;;;107273;1264;21727;-80
2023/08/08 07:56:35;;;;;;;3.40;1.20;;;;;;;;;;107215;1253;24245;-82
2023/08/08 07:59:23;;;;;;;4.40;1.20;;;;;;;;;;107164;1273;22528;-81
2023/08/08 08:01:50;;;;;;;4.50;1.10;;;;;;;;;;107280;1273;24442;-81
2023/08/08 08:04:20;;;;;;;4.30;1.40;;;;;;;;;;107162;1274;22532;-83
2023/08/08 08:06:47;;;;;;;5.20;1.40;;;;;;;;;;107173;1256;24253;-83
2023/08/08 08:09:25;;;;;;;5.00;1.50;;;;;;;;;;106969;1275;22528;-84
2023/08/08 08:11:52;;;;;;;4.70;1.40;;;;;;;;;;107036;1275;22599;-88
2023/08/08 08:14:22;;;;;;;5.10;1.30;;;;;;;;;;106945;1275;25550;-81
2023/08/08 08:16:49;;;;;;;4.80;1.50;;;;;;;;;;106989;1257;22517;-85
2023/08/08 08:19:16;;;;;;;5.50;1.60;;;;;;;;;;107159;1274;25240;-81
2023/08/08 08:21:43;;;;;;;6.90;1.30;;;;;;;;;;107132;1274;22551;-80
2023/08/08 08:24:10;;;;;;;4.10;1.30;;;;;;;;;;107139;1274;25223;-88
2023/08/08 08:35:55;;;;;;;3.40;1.20;;;;;;;;;;107403;1272;22560;-85
2023/08/08 08:38:21;;;;;;;3.70;1.00;;;;;;;;;;107107;1266;24330;-84
2023/08/08 08:40:48;;;;;;;3.90;1.00;;;;;;;;;;107141;1275;22544;-81
2023/08/08 08:43:16;;;;;;;3.30;1.20;;;;;;;;;;106963;1275;25020;-81
2023/08/08 08:45:45;;;;;;;3.40;1.00;;;;;;;;;;107078;1275;25424;-83
2023/08/08 08:48:16;;;;;;;2.30;0.80;;;;;;;;;;106964;1259;25315;-79
2023/08/08 08:50:48;;;;;;;3.00;1.20;;;;;;;;;;106965;1275;25325;-79
2023/08/08 08:53:15;;;;;;;4.00;0.90;;;;;;;;;;106883;1269;24254;-78
2023/08/08 08:55:42;;;;;;;4.80;1.10;;;;;;;;;;106975;1275;24219;-81
2023/08/08 08:58:13;;;;;;;5.00;1.50;;;;;;;;;;106895;1275;24179;-84
2023/08/08 09:00:58;;;;;;;3.90;1.20;;;;;;;;;;106934;1275;22527;-82
2023/08/08 09:03:25;;;;;;;4.10;0.90;;;;;;;;;;107151;1275;22530;-80
2023/08/08 09:06:01;;;;;;;4.80;1.20;;;;;;;;;;106929;1273;25315;-83
2023/08/08 09:08:29;;;;;;;3.60;1.10;;;;;;;;;;106991;1260;24193;-79
2023/08/08 09:10:56;;;;;;;4.50;1.20;;;;;;;;;;106944;1275;24239;-88
2023/08/08 09:13:26;;;;;;;5.20;1.20;;;;;;;;;;106973;1275;23138;-86
2023/08/08 09:15:55;;;;;;;4.80;1.40;;;;;;;;;;106985;1275;25464;-78
2023/08/08 09:18:23;;;;;;;7.50;1.50;;;;;;;;;;106967;1256;22987;-85
2023/08/08 09:20:49;;;;;;;4.00;1.20;;;;;;;;;;106988;1271;24213;-84
2023/08/08 09:23:19;;;;;;;5.40;1.30;;;;;;;;;;107131;1272;22524;-82
2023/08/08 09:25:46;;;;;;;4.40;1.20;;;;;;;;;;106910;1275;25475;-80
2023/08/08 09:28:13;;;;;;;15.90;2.30;;;;;;;;;;106874;1259;22597;-78
2023/08/08 09:30:41;;;;;;;15.30;2.30;;;;;;;;;;106772;1275;22656;-78
2023/08/08 09:33:13;;;;;;;12.30;1.80;;;;;;;;;;106980;1275;24190;-83
2023/08/08 09:35:45;;;;;;;5.80;1.50;;;;;;;;;;106992;1274;21686;-82
2023/08/08 09:38:17;;;;;;;5.20;1.40;;;;;;;;;;107066;1257;22539;-86
2023/08/08 09:40:44;;;;;;;4.80;1.30;;;;;;;;;;106777;1271;22523;-80
2023/08/08 09:43:11;;;;;;;4.70;1.20;;;;;;;;;;106969;1251;24225;-80
2023/08/08 09:45:41;;;;;;;5.30;1.40;;;;;;;;;;106982;1274;22518;-82
2023/08/08 09:48:23;;;;;;;5.60;1.60;;;;;;;;;;106909;1275;22550;-83
2023/08/08 09:50:50;;;;;;;5.30;1.40;;;;;;;;;;107255;1275;22550;-78
2023/08/08 09:53:20;;;;;;;6.00;1.50;;;;;;;;;;107057;1275;22515;-80
2023/08/08 09:55:47;;;;;;;4.10;1.50;;;;;;;;;;107239;1275;24324;-78
2023/08/08 09:58:13;;;;;;;3.80;1.40;;;;;;;;;;107170;1254;22530;-77
2023/08/08 10:00:42;;;;;;;4.90;1.70;;;;;;;;;;107090;1275;22480;-85
2023/08/08 10:03:09;;;;;;;6.30;1.70;;;;;;;;;;107162;1275;22536;-79
2023/08/08 10:05:38;;;;;;;4.90;1.40;;;;;;;;;;107412;1275;22523;-78
2023/08/08 10:08:05;;;;;;;5.40;1.40;;;;;;;;;;107385;1275;22536;-79
2023/08/08 10:10:32;;;;;;;4.60;1.50;;;;;;;;;;107231;1253;22539;-86
2023/08/08 10:12:59;;;;;;;7.20;1.70;;;;;;;;;;107359;1268;23348;-82
2023/08/08 10:15:27;;;;;;;5.40;1.40;;;;;;;;;;107236;1275;25208;-78
2023/08/08 10:17:57;;;;;;;5.90;1.50;;;;;;;;;;107415;1269;26614;-79
2023/08/08 10:20:25;;;;;;;6.20;1.90;;;;;;;;;;107073;1256;23615;-79
2023/08/08 10:22:54;;;;;;;5.40;1.60;;;;;;;;;;106924;1272;23216;-78
2023/08/08 10:25:28;;;;;;;3.90;1.60;;;;;;;;;;107000;1269;22692;-79
2023/08/08 10:28:04;;;;;;;7.90;2.20;;;;;;;;;;106977;1272;25493;-82
2023/08/08 10:30:45;;;;;;;5.50;1.60;;;;;;;;;;106972;1260;24190;-85
2023/08/08 10:33:21;;;;;;;4.20;1.60;;;;;;;;;;107025;1269;24202;-84
2023/08/08 10:36:01;;;;;;;5.10;1.60;;;;;;;;;;107191;1268;22555;-81
2023/08/08 10:38:41;;;;;;;6.50;1.60;;;;;;;;;;107121;1275;22576;-80
2023/08/08 10:41:13;;;;;;;4.50;1.80;;;;;;;;;;107134;1267;25265;-82
2023/08/08 10:43:48;;;;;;;6.40;1.70;;;;;;;;;;107133;1273;25268;-79
2023/08/08 10:46:22;;;;;;;6.20;1.90;;;;;;;;;;107037;1274;24361;-83
2023/08/08 10:48:53;;;;;;;9.00;2.10;;;;;;;;;;106993;1272;22637;-81
2023/08/08 10:51:21;;;;;;;6.50;2.20;;;;;;;;;;107051;1256;25904;-83
2023/08/08 10:53:54;;;;;;;4.60;1.30;;;;;;;;;;106932;1272;25207;-83
2023/08/08 10:56:31;;;;;;;4.90;1.60;;;;;;;;;;106967;1271;25232;-82
2023/08/08 10:59:11;;;;;;;6.10;1.70;;;;;;;;;;106980;1274;22713;-85
2023/08/08 11:01:40;;;;;;;4.60;1.60;;;;;;;;;;107146;1274;25350;-80
2023/08/08 11:04:10;;;;;;;5.70;1.60;;;;;;;;;;107017;1274;22527;-82
2023/08/08 11:06:39;;;;;;;9.20;2.00;;;;;;;;;;106970;1274;22519;-83
2023/08/08 11:09:06;;;;;;;3.30;1.10;;;;;;;;;;106974;1274;24242;-77
2023/08/08 11:11:37;;;;;;;4.70;1.50;;;;;;;;;;107220;1253;22523;-85
2023/08/08 11:14:10;;;;;;;6.50;1.50;;;;;;;;;;107097;1268;22514;-83
2023/08/08 11:16:46;;;;;;;5.70;1.40;;;;;;;;;;107030;1267;25230;-78
2023/08/08 11:19:13;;;;;;;5.30;1.50;;;;;;;;;;107178;1269;22527;-81
2023/08/08 11:21:41;;;;;;;4.20;1.50;;;;;;;;;;107256;1255;24231;-78
2023/08/08 11:24:09;;;;;;;5.90;1.50;;;;;;;;;;107004;1274;22523;-82
2023/08/08 11:26:37;;;;;;;4.50;1.60;;;;;;;;;;107153;1269;22522;-79
2023/08/08 11:29:08;;;;;;;5.80;1.90;;;;;;;;;;107255;1266;25233;-78
2023/08/08 11:31:38;;;;;;;6.40;1.50;;;;;;;;;;107089;1256;22615;-77
2023/08/08 11:34:09;;;;;;;6.20;1.40;;;;;;;;;;106998;1270;24223;-83
2023/08/08 11:36:37;;;;;;;8.20;1.60;;;;;;;;;;106976;1275;22523;-79
2023/08/08 11:39:07;;;;;;;4.90;1.40;;;;;;;;;;107110;1275;22551;-80
2023/08/08 11:41:37;;;;;;;5.30;1.60;;;;;;;;;;106985;1258;24235;-78
2023/08/08 11:44:13;;;;;;;6.60;1.50;;;;;;;;;;106953;1275;22519;-80
2023/08/08 11:46:46;;;;;;;6.60;1.60;;;;;;;;;;106999;1275;22538;-82
2023/08/08 11:49:14;;;;;;;5.00;1.40;;;;;;;;;;106913;1275;22543;-84
2023/08/08 11:51:45;;;;;;;7.00;1.60;;;;;;;;;;106953;1275;22530;-80
2023/08/08 11:54:12;;;;;;;5.10;1.70;;;;;;;;;;106949;1275;22571;-83
2023/08/08 11:56:39;;;;;;;7.80;1.70;;;;;;;;;;107003;1273;22597;-82
2023/08/08 11:59:10;;;;;;;6.30;1.50;;;;;;;;;;106981;1275;22514;-77
2023/08/08 12:01:38;;;;;;;4.60;1.30;;;;;;;;;;107132;1257;25203;-79
2023/08/08 12:04:09;;;;;;;5.20;1.80;;;;;;;;;;107139;1274;22658;-80
2023/08/08 12:06:39;;;;;;;5.70;1.80;;;;;;;;;;106969;1274;22559;-83
2023/08/08 12:09:06;;;;;;;4.60;1.50;;;;;;;;;;106990;1269;22520;-76
2023/08/08 12:11:37;;;;;;;11.50;2.00;;;;;;;;;;107084;1256;22531;-79
2023/08/08 12:14:04;;;;;;;4.30;1.40;;;;;;;;;;107170;1275;22507;-77
2023/08/08 12:16:33;;;;;;;5.30;1.30;;;;;;;;;;106894;1275;23164;-79
2023/08/08 12:19:04;;;;;;;6.20;1.90;;;;;;;;;;106982;1272;22531;-82
2023/08/08 12:21:33;;;;;;;7.60;1.90;;;;;;;;;;107142;1257;25224;-78
2023/08/08 12:24:02;;;;;;;5.20;1.60;;;;;;;;;;107024;1274;22552;-78
2023/08/08 12:26:32;;;;;;;5.00;1.60;;;;;;;;;;106936;1270;22582;-80
2023/08/08 12:28:59;;;;;;;6.80;1.70;;;;;;;;;;106998;1274;23131;-81
2023/08/08 12:31:35;;;;;;;6.70;1.50;;;;;;;;;;107030;1251;24210;-84
2023/08/08 12:34:01;;;;;;;5.10;1.30;;;;;;;;;;107215;1269;22527;-83
2023/08/08 12:36:28;;;;;;;3.60;1.50;;;;;;;;;;107237;1270;22658;-79
2023/08/08 12:38:55;;;;;;;5.20;1.30;;;;;;;;;;107164;1274;25889;-83
2023/08/08 12:41:25;;;;;;;7.00;1.40;;;;;;;;;;106979;1274;22521;-76
2023/08/08 12:43:52;;;;;;;5.80;1.60;;;;;;;;;;106936;1261;23717;-84
2023/08/08 12:46:19;;;;;;;9.00;1.70;;;;;;;;;;106947;1274;24313;-83
2023/08/08 12:48:52;;;;;;;10.20;1.80;;;;;;;;;;107028;1274;24183;-86
2023/08/08 12:51:19;;;;;;;4.50;1.40;;;;;;;;;;107041;1274;25284;-79
2023/08/08 12:53:46;;;;;;;6.20;2.00;;;;;;;;;;106913;1259;22652;-83
2023/08/08 12:56:33;;;;;;;6.00;1.40;;;;;;;;;;106964;1274;22473;-81
2023/08/08 12:59:02;;;;;;;6.70;1.40;;;;;;;;;;107022;1274;25271;-80
2023/08/08 13:01:32;;;;;;;7.80;1.70;;;;;;;;;;104403;1274;3635967;-82
2023/08/08 13:04:12;;;;;;;6.00;1.40;;;;;;;;;;106961;1256;23525;-83
2023/08/08 13:06:45;;;;;;;5.40;1.80;;;;;;;;;;106974;1274;22649;-82
2023/08/08 13:09:12;;;;;;;6.10;1.70;;;;;;;;;;107150;1274;26489;-78
2023/08/08 13:11:47;;;;;;;5.20;1.50;;;;;;;;;;106968;1274;24434;-83
2023/08/08 13:14:24;;;;;;;8.00;1.70;;;;;;;;;;107011;1274;25390;-80
2023/08/08 13:16:51;;;;;;;5.70;1.60;;;;;;;;;;106976;1274;23657;-85
2023/08/08 13:19:24;;;;;;;7.60;1.90;;;;;;;;;;106958;1274;22523;-80
2023/08/08 13:21:52;;;;;;;5.20;1.20;;;;;;;;;;107046;1274;27011;-83
2023/08/08 13:24:25;;;;;;;8.60;1.60;;;;;;;;;;107089;1257;22620;-79
2023/08/08 13:26:54;;;;;;;6.90;2.10;;;;;;;;;;107224;1274;25360;-82
2023/08/08 13:29:21;;;;;;;3.90;1.30;;;;;;;;;;107037;1274;22582;-82
2023/08/08 13:31:48;;;;;;;4.90;1.30;;;;;;;;;;107032;1274;25359;-79
2023/08/08 13:34:15;;;;;;;3.80;1.50;;;;;;;;;;106964;1272;25025;-78
2023/08/08 13:36:45;;;;;;;7.60;1.70;;;;;;;;;;106964;1274;24423;-82
2023/08/08 13:39:12;;;;;;;5.70;1.40;;;;;;;;;;107070;1274;24279;-77
2023/08/08 13:41:39;;;;;;;7.40;1.70;;;;;;;;;;106953;1274;22520;-79
2023/08/08 13:44:07;;;;;;;4.90;1.50;;;;;;;;;;107160;1267;22531;-84
2023/08/08 13:46:34;;;;;;;6.70;1.60;;;;;;;;;;106987;1274;23905;-82
2023/08/08 13:49:01;;;;;;;4.10;1.60;;;;;;;;;;107224;1274;22536;-82
2023/08/08 13:51:28;;;;;;;5.30;1.50;;;;;;;;;;106992;1274;22546;-80
2023/08/08 13:53:55;;;;;;;6.00;1.40;;;;;;;;;;107052;1259;22523;-82
2023/08/08 13:56:22;;;;;;;6.30;1.70;;;;;;;;;;106944;1274;24242;-83
2023/08/08 13:58:49;;;;;;;9.50;2.00;;;;;;;;;;106986;1274;25281;-79
2023/08/08 14:01:16;;;;;;;5.80;1.80;;;;;;;;;;107046;1274;24186;-87
2023/08/08 14:03:43;;;;;;;5.60;1.60;;;;;;;;;;106931;1274;22527;-78
2023/08/08 14:06:11;;;;;;;4.70;1.40;;;;;;;;;;106916;1274;24323;-80
2023/08/08 14:08:38;;;;;;;9.20;1.60;;;;;;;;;;107053;1274;22639;-82
2023/08/08 14:11:10;;;;;;;6.30;1.50;;;;;;;;;;107021;1275;22480;-77
2023/08/08 14:13:46;;;;;;;6.50;1.30;;;;;;;;;;106960;1254;22552;-83
2023/08/08 14:16:25;;;;;;;6.10;1.80;;;;;;;;;;106959;1275;25227;-78
2023/08/08 14:18:51;;;;;;;7.90;1.50;;;;;;;;;;107160;1275;24200;-83
2023/08/08 14:21:27;;;;;;;7.70;1.70;;;;;;;;;;106951;1275;22535;-78
2023/08/08 14:23:54;;;;;;;5.10;1.60;;;;;;;;;;106918;1275;22546;-82
2023/08/08 14:26:21;;;;;;;4.40;1.40;;;;;;;;;;106927;1275;24485;-79
2023/08/08 14:28:47;;;;;;;6.50;1.60;;;;;;;;;;106914;1275;22836;-84
2023/08/08 14:31:14;;;;;;;7.80;1.70;;;;;;;;;;106974;1275;25373;-75
2023/08/08 14:33:41;;;;;;;5.00;1.60;;;;;;;;;;106869;1275;25059;-78
2023/08/08 14:36:08;;;;;;;10.50;1.80;;;;;;;;;;106957;1259;24256;-78
2023/08/08 14:38:36;;;;;;;10.00;1.90;;;;;;;;;;107120;1275;22767;-80
2023/08/08 14:41:03;;;;;;;6.10;1.80;;;;;;;;;;106957;1275;25846;-78
2023/08/08 14:43:30;;;;;;;7.50;2.10;;;;;;;;;;106941;1275;24240;-80
2023/08/08 14:46:00;;;;;;;6.80;2.00;;;;;;;;;;106989;1257;22530;-79
2023/08/08 14:48:30;;;;;;;6.40;2.10;;;;;;;;;;106897;1275;22526;-79
2023/08/08 14:50:57;;;;;;;7.70;2.10;;;;;;;;;;106919;1275;22524;-84
2023/08/08 14:53:24;;;;;;;5.60;1.90;;;;;;;;;;106981;1275;25284;-78
2023/08/08 14:55:51;;;;;;;6.60;1.80;;;;;;;;;;106870;1259;22546;-83
2023/08/08 14:58:18;;;;;;;8.40;2.00;;;;;;;;;;106974;1275;24197;-80
2023/08/08 15:00:45;;;;;;;5.50;1.80;;;;;;;;;;106969;1275;24247;-85
2023/08/08 15:03:14;;;;;;;5.40;1.50;;;;;;;;;;106878;1275;22782;-82
2023/08/08 15:05:43;;;;;;;6.40;2.00;;;;;;;;;;106873;1259;22527;-83
2023/08/08 15:08:21;;;;;;;4.30;1.70;;;;;;;;;;106857;1267;24386;-79